EDDF/FRA METAR and TAF weather

Enter ICAO airport designator
Station Type Date Time Source
EDDF METAR 2022/06/30 00:20 UTC NOAA

EDDF 300020Z 02006KT CAVOK 22/17 Q1012 NOSIG


Station Type Date Time Source
EDDF Decoded METAR 2022/06/30 00:20 UTC NOAA

Frankfurt / M-Flughafen, Germany (EDDF) 50-03N 008-36E 113M
Jun 29, 2022 - 08:20 PM EDT / 2022.06.30 0020 UTC
Wind: from the NNE (020 degrees) at 7 MPH (6 KT):0
Visibility: greater than 7 mile(s):0
Temperature: 71 F (22 C)
Dew Point: 62 F (17 C)
Relative Humidity: 73%
Pressure (altimeter): 29.88 in. Hg (1012 hPa)
ob: EDDF 300020Z 02006KT CAVOK 22/17 Q1012 NOSIG
cycle: 0

Station Type Date Time Source
EDDF TAF 2022/06/29 18:30 UTC NOAA

TAF EDDF 291700Z 2918/3024 26005KT CAVOK
BECMG 2919/2922 04005KT
BECMG 3009/3012 13005KT
BECMG 3014/3017 21006KT
TEMPO 3022/3024 22020G35KT 2000 +TSRA BKN025CB

Example: see airport list